sensor_id;sensor_type;location;lat;lon;timestamp;P1;durP1;ratioP1;P2;durP2;ratioP2
43226;SDS011;28839;52.404;9.808;2023-03-11T00:04:40;29.73;;;16.90;;
43226;SDS011;28839;52.404;9.808;2023-03-11T00:18:30;29.30;;;18.08;;
43226;SDS011;28839;52.404;9.808;2023-03-11T00:25:24;30.77;;;18.42;;
43226;SDS011;28839;52.404;9.808;2023-03-11T00:32:19;26.48;;;15.73;;
43226;SDS011;28839;52.404;9.808;2023-03-11T00:39:15;23.10;;;14.85;;
43226;SDS011;28839;52.404;9.808;2023-03-11T00:46:08;25.48;;;16.60;;
43226;SDS011;28839;52.404;9.808;2023-03-11T00:53:03;16.07;;;11.03;;
43226;SDS011;28839;52.404;9.808;2023-03-11T00:59:59;25.67;;;15.80;;
43226;SDS011;28839;52.404;9.808;2023-03-11T01:06:53;15.60;;;8.80;;
43226;SDS011;28839;52.404;9.808;2023-03-11T01:13:46;19.27;;;11.60;;
43226;SDS011;28839;52.404;9.808;2023-03-11T01:20:45;13.25;;;9.13;;
43226;SDS011;28839;52.404;9.808;2023-03-11T01:27:39;11.02;;;6.22;;
43226;SDS011;28839;52.404;9.808;2023-03-11T01:34:33;9.00;;;5.78;;
43226;SDS011;28839;52.404;9.808;2023-03-11T01:41:28;9.83;;;6.20;;
43226;SDS011;28839;52.404;9.808;2023-03-11T01:48:22;9.68;;;5.03;;
43226;SDS011;28839;52.404;9.808;2023-03-11T01:55:16;8.48;;;5.40;;
43226;SDS011;28839;52.404;9.808;2023-03-11T02:02:13;7.40;;;5.37;;
43226;SDS011;28839;52.404;9.808;2023-03-11T02:09:11;9.82;;;6.25;;
43226;SDS011;28839;52.404;9.808;2023-03-11T02:16:05;9.93;;;6.68;;
43226;SDS011;28839;52.404;9.808;2023-03-11T02:23:00;9.20;;;5.87;;
43226;SDS011;28839;52.404;9.808;2023-03-11T02:29:56;9.35;;;5.80;;
43226;SDS011;28839;52.404;9.808;2023-03-11T02:36:53;10.48;;;6.18;;
43226;SDS011;28839;52.404;9.808;2023-03-11T02:43:48;10.32;;;6.28;;
43226;SDS011;28839;52.404;9.808;2023-03-11T02:50:43;9.15;;;5.35;;
43226;SDS011;28839;52.404;9.808;2023-03-11T02:57:39;11.65;;;6.60;;
43226;SDS011;28839;52.404;9.808;2023-03-11T03:04:33;10.90;;;6.68;;
43226;SDS011;28839;52.404;9.808;2023-03-11T03:11:28;9.82;;;5.78;;
43226;SDS011;28839;52.404;9.808;2023-03-11T03:18:22;12.90;;;6.32;;
43226;SDS011;28839;52.404;9.808;2023-03-11T03:25:16;8.30;;;5.78;;
43226;SDS011;28839;52.404;9.808;2023-03-11T03:32:11;13.67;;;7.40;;
43226;SDS011;28839;52.404;9.808;2023-03-11T03:39:05;9.07;;;5.75;;
43226;SDS011;28839;52.404;9.808;2023-03-11T03:46:00;11.68;;;5.72;;
43226;SDS011;28839;52.404;9.808;2023-03-11T03:52:57;14.18;;;6.03;;
43226;SDS011;28839;52.404;9.808;2023-03-11T03:59:50;9.77;;;6.30;;
43226;SDS011;28839;52.404;9.808;2023-03-11T04:06:44;11.52;;;5.90;;
43226;SDS011;28839;52.404;9.808;2023-03-11T04:13:39;12.23;;;6.63;;
43226;SDS011;28839;52.404;9.808;2023-03-11T04:20:37;7.60;;;5.00;;
43226;SDS011;28839;52.404;9.808;2023-03-11T04:27:31;8.88;;;4.45;;
43226;SDS011;28839;52.404;9.808;2023-03-11T04:34:26;5.53;;;2.90;;
43226;SDS011;28839;52.404;9.808;2023-03-11T04:41:20;20.85;;;4.22;;
43226;SDS011;28839;52.404;9.808;2023-03-11T04:48:14;9.10;;;3.63;;
43226;SDS011;28839;52.404;9.808;2023-03-11T04:55:09;7.33;;;3.20;;
43226;SDS011;28839;52.404;9.808;2023-03-11T05:02:04;7.97;;;3.30;;
43226;SDS011;28839;52.404;9.808;2023-03-11T05:08:58;7.53;;;2.65;;
43226;SDS011;28839;52.404;9.808;2023-03-11T05:15:53;8.87;;;2.77;;
43226;SDS011;28839;52.404;9.808;2023-03-11T05:22:47;7.22;;;3.42;;
43226;SDS011;28839;52.404;9.808;2023-03-11T05:29:42;9.07;;;2.50;;
43226;SDS011;28839;52.404;9.808;2023-03-11T05:36:37;7.33;;;2.77;;
43226;SDS011;28839;52.404;9.808;2023-03-11T05:43:31;15.30;;;4.20;;
43226;SDS011;28839;52.404;9.808;2023-03-11T05:50:24;13.02;;;3.80;;
43226;SDS011;28839;52.404;9.808;2023-03-11T05:57:20;10.18;;;3.97;;
43226;SDS011;28839;52.404;9.808;2023-03-11T06:04:14;11.27;;;5.40;;
43226;SDS011;28839;52.404;9.808;2023-03-11T06:11:09;11.00;;;3.97;;
43226;SDS011;28839;52.404;9.808;2023-03-11T06:18:04;12.77;;;4.40;;
43226;SDS011;28839;52.404;9.808;2023-03-11T06:24:58;11.12;;;4.07;;
43226;SDS011;28839;52.404;9.808;2023-03-11T06:31:52;9.32;;;3.33;;
43226;SDS011;28839;52.404;9.808;2023-03-11T06:38:47;7.83;;;3.27;;
43226;SDS011;28839;52.404;9.808;2023-03-11T06:45:44;11.40;;;3.80;;
43226;SDS011;28839;52.404;9.808;2023-03-11T06:52:38;9.27;;;3.70;;
43226;SDS011;28839;52.404;9.808;2023-03-11T06:59:35;7.70;;;3.97;;
43226;SDS011;28839;52.404;9.808;2023-03-11T07:06:29;8.15;;;3.15;;
43226;SDS011;28839;52.404;9.808;2023-03-11T07:13:23;6.07;;;2.77;;
43226;SDS011;28839;52.404;9.808;2023-03-11T07:20:18;7.17;;;2.97;;
43226;SDS011;28839;52.404;9.808;2023-03-11T07:27:12;12.13;;;4.75;;
43226;SDS011;28839;52.404;9.808;2023-03-11T07:34:06;7.90;;;3.37;;
43226;SDS011;28839;52.404;9.808;2023-03-11T07:41:07;12.75;;;5.20;;
43226;SDS011;28839;52.404;9.808;2023-03-11T07:48:02;12.50;;;4.43;;
43226;SDS011;28839;52.404;9.808;2023-03-11T07:54:56;5.28;;;2.30;;
43226;SDS011;28839;52.404;9.808;2023-03-11T08:01:51;11.00;;;3.22;;
43226;SDS011;28839;52.404;9.808;2023-03-11T08:08:45;7.97;;;3.55;;
43226;SDS011;28839;52.404;9.808;2023-03-11T08:15:39;10.65;;;3.80;;
43226;SDS011;28839;52.404;9.808;2023-03-11T08:22:35;7.40;;;3.37;;
43226;SDS011;28839;52.404;9.808;2023-03-11T08:29:29;10.75;;;3.53;;
43226;SDS011;28839;52.404;9.808;2023-03-11T08:36:23;8.85;;;3.00;;
43226;SDS011;28839;52.404;9.808;2023-03-11T08:43:18;4.70;;;2.73;;
43226;SDS011;28839;52.404;9.808;2023-03-11T08:50:13;4.05;;;2.55;;
43226;SDS011;28839;52.404;9.808;2023-03-11T08:57:08;4.95;;;2.37;;
43226;SDS011;28839;52.404;9.808;2023-03-11T09:04:03;7.28;;;2.60;;
43226;SDS011;28839;52.404;9.808;2023-03-11T09:10:57;9.57;;;3.85;;
43226;SDS011;28839;52.404;9.808;2023-03-11T09:17:51;5.03;;;2.95;;
43226;SDS011;28839;52.404;9.808;2023-03-11T09:24:46;11.60;;;4.20;;
43226;SDS011;28839;52.404;9.808;2023-03-11T09:31:40;5.80;;;2.17;;
43226;SDS011;28839;52.404;9.808;2023-03-11T09:38:34;7.78;;;2.87;;
43226;SDS011;28839;52.404;9.808;2023-03-11T09:45:32;6.87;;;2.55;;
43226;SDS011;28839;52.404;9.808;2023-03-11T09:52:31;3.83;;;2.20;;
43226;SDS011;28839;52.404;9.808;2023-03-11T09:59:30;8.05;;;2.37;;
43226;SDS011;28839;52.404;9.808;2023-03-11T10:06:27;6.90;;;2.50;;
43226;SDS011;28839;52.404;9.808;2023-03-11T10:13:23;3.40;;;2.22;;
43226;SDS011;28839;52.404;9.808;2023-03-11T10:20:21;6.45;;;2.20;;
43226;SDS011;28839;52.404;9.808;2023-03-11T10:27:23;5.75;;;2.22;;
43226;SDS011;28839;52.404;9.808;2023-03-11T10:34:22;4.40;;;2.22;;
43226;SDS011;28839;52.404;9.808;2023-03-11T10:41:20;6.70;;;2.58;;
43226;SDS011;28839;52.404;9.808;2023-03-11T10:48:20;6.80;;;2.37;;
43226;SDS011;28839;52.404;9.808;2023-03-11T10:55:15;6.10;;;1.95;;
43226;SDS011;28839;52.404;9.808;2023-03-11T11:02:18;6.32;;;1.77;;
43226;SDS011;28839;52.404;9.808;2023-03-11T11:09:19;9.35;;;3.05;;
43226;SDS011;28839;52.404;9.808;2023-03-11T11:16:17;9.25;;;4.00;;
43226;SDS011;28839;52.404;9.808;2023-03-11T11:23:23;6.00;;;2.15;;
43226;SDS011;28839;52.404;9.808;2023-03-11T11:30:20;7.62;;;2.58;;
43226;SDS011;28839;52.404;9.808;2023-03-11T11:37:14;6.78;;;2.60;;
43226;SDS011;28839;52.404;9.808;2023-03-11T11:44:08;6.67;;;1.83;;
43226;SDS011;28839;52.404;9.808;2023-03-11T11:51:12;6.50;;;2.03;;
43226;SDS011;28839;52.404;9.808;2023-03-11T11:58:11;8.90;;;3.42;;
43226;SDS011;28839;52.404;9.808;2023-03-11T12:05:06;10.00;;;3.25;;
43226;SDS011;28839;52.404;9.808;2023-03-11T12:12:11;6.05;;;1.77;;
43226;SDS011;28839;52.404;9.808;2023-03-11T12:19:15;6.70;;;1.80;;
43226;SDS011;28839;52.404;9.808;2023-03-11T12:26:14;4.15;;;1.77;;
43226;SDS011;28839;52.404;9.808;2023-03-11T12:33:12;5.62;;;2.40;;
43226;SDS011;28839;52.404;9.808;2023-03-11T12:47:38;6.35;;;2.20;;
43226;SDS011;28839;52.404;9.808;2023-03-11T12:54:34;5.10;;;1.83;;
43226;SDS011;28839;52.404;9.808;2023-03-11T13:01:36;9.05;;;3.10;;
43226;SDS011;28839;52.404;9.808;2023-03-11T13:08:43;5.78;;;1.90;;
43226;SDS011;28839;52.404;9.808;2023-03-11T13:15:40;5.50;;;1.90;;
43226;SDS011;28839;52.404;9.808;2023-03-11T13:22:41;4.68;;;1.62;;
43226;SDS011;28839;52.404;9.808;2023-03-11T13:29:58;5.60;;;1.30;;
43226;SDS011;28839;52.404;9.808;2023-03-11T13:37:02;4.90;;;1.37;;
43226;SDS011;28839;52.404;9.808;2023-03-11T13:44:10;4.12;;;1.25;;
43226;SDS011;28839;52.404;9.808;2023-03-11T13:51:07;7.85;;;1.48;;
43226;SDS011;28839;52.404;9.808;2023-03-11T13:58:14;6.60;;;1.58;;
43226;SDS011;28839;52.404;9.808;2023-03-11T14:05:11;5.53;;;1.52;;
43226;SDS011;28839;52.404;9.808;2023-03-11T14:12:07;5.18;;;1.42;;
43226;SDS011;28839;52.404;9.808;2023-03-11T14:19:04;14.38;;;4.78;;
43226;SDS011;28839;52.404;9.808;2023-03-11T14:26:06;4.28;;;1.70;;
43226;SDS011;28839;52.404;9.808;2023-03-11T14:33:05;4.87;;;0.98;;
43226;SDS011;28839;52.404;9.808;2023-03-11T14:40:21;6.40;;;1.80;;
43226;SDS011;28839;52.404;9.808;2023-03-11T14:47:18;2.92;;;0.93;;
43226;SDS011;28839;52.404;9.808;2023-03-11T14:54:16;5.93;;;1.73;;
43226;SDS011;28839;52.404;9.808;2023-03-11T15:01:17;4.55;;;1.23;;
43226;SDS011;28839;52.404;9.808;2023-03-11T15:08:15;3.17;;;1.35;;
43226;SDS011;28839;52.404;9.808;2023-03-11T15:15:23;3.12;;;1.25;;
43226;SDS011;28839;52.404;9.808;2023-03-11T15:22:24;7.90;;;1.58;;
43226;SDS011;28839;52.404;9.808;2023-03-11T15:29:19;3.87;;;1.67;;
43226;SDS011;28839;52.404;9.808;2023-03-11T15:36:30;6.23;;;1.30;;
43226;SDS011;28839;52.404;9.808;2023-03-11T15:43:27;6.05;;;1.65;;
43226;SDS011;28839;52.404;9.808;2023-03-11T15:50:24;2.55;;;1.17;;
43226;SDS011;28839;52.404;9.808;2023-03-11T15:57:20;4.75;;;1.37;;
43226;SDS011;28839;52.404;9.808;2023-03-11T16:04:18;4.28;;;1.42;;
43226;SDS011;28839;52.404;9.808;2023-03-11T16:11:13;3.60;;;1.23;;
43226;SDS011;28839;52.404;9.808;2023-03-11T16:18:08;6.80;;;1.42;;
43226;SDS011;28839;52.404;9.808;2023-03-11T16:25:03;10.13;;;3.17;;
43226;SDS011;28839;52.404;9.808;2023-03-11T16:31:59;3.72;;;1.45;;
43226;SDS011;28839;52.404;9.808;2023-03-11T16:38:53;4.20;;;1.10;;
43226;SDS011;28839;52.404;9.808;2023-03-11T16:45:48;3.72;;;1.42;;
43226;SDS011;28839;52.404;9.808;2023-03-11T16:52:43;6.72;;;1.42;;
43226;SDS011;28839;52.404;9.808;2023-03-11T16:59:37;5.10;;;1.45;;
43226;SDS011;28839;52.404;9.808;2023-03-11T17:06:32;4.03;;;1.33;;
43226;SDS011;28839;52.404;9.808;2023-03-11T17:13:26;6.05;;;1.67;;
43226;SDS011;28839;52.404;9.808;2023-03-11T17:20:20;5.75;;;1.80;;
43226;SDS011;28839;52.404;9.808;2023-03-11T17:27:15;4.47;;;2.03;;
43226;SDS011;28839;52.404;9.808;2023-03-11T17:34:11;4.95;;;1.60;;
43226;SDS011;28839;52.404;9.808;2023-03-11T17:41:06;2.60;;;1.62;;
43226;SDS011;28839;52.404;9.808;2023-03-11T17:48:01;8.02;;;4.50;;
43226;SDS011;28839;52.404;9.808;2023-03-11T17:54:55;7.78;;;2.42;;
43226;SDS011;28839;52.404;9.808;2023-03-11T18:01:49;8.00;;;2.90;;
43226;SDS011;28839;52.404;9.808;2023-03-11T18:08:44;8.35;;;2.83;;
43226;SDS011;28839;52.404;9.808;2023-03-11T18:15:38;7.90;;;2.70;;
43226;SDS011;28839;52.404;9.808;2023-03-11T18:22:32;8.45;;;2.47;;
43226;SDS011;28839;52.404;9.808;2023-03-11T18:29:27;8.45;;;3.00;;
43226;SDS011;28839;52.404;9.808;2023-03-11T18:36:22;10.77;;;3.97;;
43226;SDS011;28839;52.404;9.808;2023-03-11T18:43:17;12.23;;;3.70;;
43226;SDS011;28839;52.404;9.808;2023-03-11T18:50:12;8.52;;;4.30;;
43226;SDS011;28839;52.404;9.808;2023-03-11T18:57:06;10.13;;;3.87;;
43226;SDS011;28839;52.404;9.808;2023-03-11T19:03:59;12.90;;;5.90;;
43226;SDS011;28839;52.404;9.808;2023-03-11T19:10:55;13.35;;;4.20;;
43226;SDS011;28839;52.404;9.808;2023-03-11T19:17:49;20.35;;;10.68;;
43226;SDS011;28839;52.404;9.808;2023-03-11T19:24:43;24.30;;;9.75;;
43226;SDS011;28839;52.404;9.808;2023-03-11T19:31:38;39.83;;;17.77;;
43226;SDS011;28839;52.404;9.808;2023-03-11T19:38:32;12.32;;;5.97;;
43226;SDS011;28839;52.404;9.808;2023-03-11T19:45:27;14.15;;;5.97;;
43226;SDS011;28839;52.404;9.808;2023-03-11T19:52:23;23.90;;;13.32;;
43226;SDS011;28839;52.404;9.808;2023-03-11T19:59:17;26.73;;;19.62;;
43226;SDS011;28839;52.404;9.808;2023-03-11T20:06:11;17.85;;;9.60;;
43226;SDS011;28839;52.404;9.808;2023-03-11T20:13:10;12.40;;;7.32;;
43226;SDS011;28839;52.404;9.808;2023-03-11T20:20:05;10.40;;;6.85;;
43226;SDS011;28839;52.404;9.808;2023-03-11T20:33:55;10.27;;;6.45;;
43226;SDS011;28839;52.404;9.808;2023-03-11T20:40:53;10.60;;;6.62;;
43226;SDS011;28839;52.404;9.808;2023-03-11T20:47:47;14.90;;;7.62;;
43226;SDS011;28839;52.404;9.808;2023-03-11T20:54:45;13.38;;;7.43;;
43226;SDS011;28839;52.404;9.808;2023-03-11T21:01:39;14.25;;;7.90;;
43226;SDS011;28839;52.404;9.808;2023-03-11T21:08:33;11.00;;;6.00;;
43226;SDS011;28839;52.404;9.808;2023-03-11T21:15:28;13.77;;;8.00;;
43226;SDS011;28839;52.404;9.808;2023-03-11T21:22:22;13.40;;;7.80;;
43226;SDS011;28839;52.404;9.808;2023-03-11T21:29:16;9.93;;;5.17;;
43226;SDS011;28839;52.404;9.808;2023-03-11T21:36:12;9.23;;;3.80;;
43226;SDS011;28839;52.404;9.808;2023-03-11T21:43:07;9.85;;;4.78;;
43226;SDS011;28839;52.404;9.808;2023-03-11T21:50:01;6.20;;;3.15;;
43226;SDS011;28839;52.404;9.808;2023-03-11T21:56:56;6.77;;;3.10;;
43226;SDS011;28839;52.404;9.808;2023-03-11T22:03:50;5.00;;;3.25;;
43226;SDS011;28839;52.404;9.808;2023-03-11T22:10:44;4.30;;;2.60;;
43226;SDS011;28839;52.404;9.808;2023-03-11T22:17:39;8.52;;;3.47;;
43226;SDS011;28839;52.404;9.808;2023-03-11T22:24:33;7.72;;;3.00;;
43226;SDS011;28839;52.404;9.808;2023-03-11T22:31:27;9.02;;;3.78;;
43226;SDS011;28839;52.404;9.808;2023-03-11T22:38:22;5.97;;;3.80;;
43226;SDS011;28839;52.404;9.808;2023-03-11T22:45:16;11.18;;;6.25;;
43226;SDS011;28839;52.404;9.808;2023-03-11T22:52:13;12.23;;;7.32;;
43226;SDS011;28839;52.404;9.808;2023-03-11T22:59:08;11.80;;;7.90;;
43226;SDS011;28839;52.404;9.808;2023-03-11T23:06:03;11.05;;;6.25;;
43226;SDS011;28839;52.404;9.808;2023-03-11T23:12:58;11.45;;;6.10;;
43226;SDS011;28839;52.404;9.808;2023-03-11T23:19:53;11.07;;;6.80;;
43226;SDS011;28839;52.404;9.808;2023-03-11T23:26:47;15.07;;;6.12;;
43226;SDS011;28839;52.404;9.808;2023-03-11T23:33:41;9.63;;;6.67;;
43226;SDS011;28839;52.404;9.808;2023-03-11T23:40:38;12.00;;;5.90;;
43226;SDS011;28839;52.404;9.808;2023-03-11T23:47:32;9.35;;;5.95;;
43226;SDS011;28839;52.404;9.808;2023-03-11T23:54:26;12.68;;;5.28;;
